Latest METARs, TAFs and NOTAMs for MYNN


---------------------------------------------------------------------------
	(OBSERVATIONS)
MYNN 292300Z 12004KT 9999 SCT018TCU SCT220 30/23 A3001 RMK TCU
    SW/W=
MYNN 292200Z 11006KT 9999 FEW016CB SCT220 30/22 A3001 RMK CB
    SW / N=
MYNN 292100Z 12004KT 9999 VCSH FEW012CB SCT018TCU 32/24 A3001
    RMK VCSH N THRU NE CB SW THRU W TCU SCT ALQDS=
---------------------------------------------------------------------------
	(TERMINAL AREA FORECAST)
MYNN 292130Z 3000/3024 11006KT 9999 FEW016CB SCT020
    PROB30 TEMPO 3015/3020 13010KT 9000 VCSH SCT016CB SCT045=
---------------------------------------------------------------------------
	(NOTAMS)


MYNN A0068/13 VOR Y RWY 14 FEEDER RTE FM MAJUR TO MUNIE NOT AVBL
    VOR Y RWY 14 FEEDER RTE FM MELON TO MUNIE NOT AVBL. SFC -
    UNL, 19 APR 19:55 2013 UNTIL PERM. CREATED: 19 APR 19:51
    2013

MYNN A0069/13 VOR Y RWY 09 FEEDER RTE FM MAJUR TO MUSSE NOT AVBL
    REMOVE PROCEDURE NOTE 'RADAR REQUIRED' FM APP CHART. SFC
    - UNL, 19 APR 19:55 2013 UNTIL PERM. CREATED: 19 APR 19:52
    2013

MYNN A0070/13 VOR Y RWY 32 FEEDER RTE FM PRUNE TO WELKS NOT AVBL
    REMOVE PROCEDURE NOTE 'RADAR REQUIRED' FM APP CHART. SFC
    - UNL, 19 APR 19:55 2013 UNTIL PERM. CREATED: 19 APR 19:54
    2013

MYNN A0088/15 WEF JULY 01, 2015 ALL VFR AND IFR FLIGHTS OPR IN
    AND THRU NASSAU FIR/CTA ALL FLIGHTS ARRIVING AND DEPARTING
    MYNN ARE REQUIRED TO FILE A PLN WITH NASSAU FIS FLIGHT PLANS
    SUBMITTED DUR FLT SHOULD NORMALLY BE TRANSMITTED ON NASSAU
    RDO FREQ 128.00 MHZ OR 124.200 MHZ PRIOR TO 25 DME FM ZQA
    NON-COMPLIANT ACFT THAT INTEND TO OPR WI NASSAU CTA/FIR WILL
    NOT BE AUTHORIZED OR PERMITTED. 01 JUL 23:59 2015 UNTIL PERM.
    CREATED: 13 MAY 18:03 2015

MYNN A0108/15 INFORMATION LISTED IN AIC 3/2015 WITH THE EXCEPTION
    OF MYNN AND MYGF RNAV APCH PROC IN THE BAHAMAS ARE NOT AUTH
    DUE TO AIRSPACE CLASSIFICATION RESTRICTIONS. 01 JUN 18:00
    2015 UNTIL PERM. CREATED: 01 JUN 16:52 2015

MYNN A0141/16 CHECKLIST (A) SERIES YEAR=2010 0277 YEAR=2013 0068
    0069 0070 YEAR=2015 0088 0103 0108 0109 YEAR=2016 0057 0058
    0059 0060 0061 0062 0063 0064 0065 0066 0067 0068 0069 0070
    0071 0077 0084 0105 0106 0107 0108 0109 0110 0122 0136 0137
    0138 0139 0140) LATEST PUBLICATIONS AIP AMDT 01/16 EFFECTIVE
    MAY 26, 2016 AIC 02/16. 02 JUN 16:30 2016 UNTIL 30 JUN 23:59
    2016. CREATED: 02 JUN 16:13 2016

MYNN A0164/16 GATES 41 AND 42 CLSD FOR PAVEMENT REPAIR. 23 JUN
    10:00 2016 UNTIL 02 JUL 22:00 2016. CREATED: 22 JUN 20:08
    2016

MYNN B0010/16 CHECKLIST (B) SERIES YEAR=2015 0038 YEAR=2016 0002
    0003 0004 0006 0007 0008 LATEST PUBLICATIONS AIP AMDT 01/15
    EFFECTIVE MAY 28, 2015 AIC 05/15. 02 JUN 16:30 2016 UNTIL
    30 JUN 23:59 2016. CREATED: 02 JUN 16:18 2016

MYNN V0109/16 [DOD PROCEDURAL NOTAM] RUNWAY 14-32 IS NOW 11,126
    FEET LONG. RUNWAY 14 NOW HAS 10,920 FEET OF LANDING DISTANCE
    AVAILABLE BECAUSE OF THE 206 FOOT DISPLACED THRESHOLD. 02
    MAY 16:26 2016 UNTIL 20 JUL 23:59 2016. CREATED: 02 MAY 16:31
    2016

---------------------------------------------------------------------------